Tiempo atmosférico en la estación meteorológica de Cervantes, Lugo (1020 m.)



Fecha
DESCASC
Temp. máxima en grados centígrados (hora)
DESCASC
Temp. mínima en grados centígrados (hora)
DESCASC
Temp. media en grados centígrados
DESCASC
Racha de viento máxima en m/sg (hora)
DESCASC
Velocidad máxima media en intervalos de 10 minutos(hora)
DESCASC
Precipitaciones diarias en mm
DESCASC
Precipitaciones de 00:00 a 06:00 en mm
DESCASC
Precipitaciones de 06:00 a 12:00 en mm
DESCASC
Precipitaciones de 12:00 a 18:00 en mm
DESCASC
Precipitaciones de 18:00 a 24:00 en mm
DESCASC
08-12-2019 9.7 (12:30) 2.6 (23:59) 6.1 7.22 (12:50) 2.78 (13:00) 9.6 1 7 1.6 0
07-12-2019 11.6 (13:20) 5.9 (01:30) 8.8 4.17 (20:20) 2.22 (14:40) 0 0 0 0 0
06-12-2019 10.3 (13:50) 5.1 (05:10) 7.7 9.17 (00:10) 4.72 (00:10) 0 0 0 0 0
05-12-2019 10.1 (16:10) -0.2 (00:00) 5 11.39 (20:00) 8.06 (20:00) 0 0 0 0 0
04-12-2019 8.5 (12:40) 0.1 (00:00) 4.3 14.17 (03:50) 8.61 (01:40) 0 0 0 0 0
03-12-2019 7.5 (16:00) -1.9 (-00:0) 2.8 12.5 (22:30) 7.78 (23:59) 0 0 0 0 0
02-12-2019 7.1 (13:20) -0.5 (-00:0) 3.3 9.44 (07:50) 3.33 (04:30) 0 0 0 0 0
01-12-2019 6.2 (13:00) 2.1 (00:00) 4.1 10.56 (05:40) 5.56 (05:20) 4.4 2.2 0 0 2.2
30-11-2019 10.6 (06:30) 4.2 (00:00) 7.4 13.33 (07:50) 6.11 (02:30) 23.6 15.2 6.2 0 2.2
29-11-2019 12.7 (14:00) 5.6 (00:00) 9.1 10 (21:50) 4.44 (21:50) 0.2 0 0 0 0.2
28-11-2019 10.5 (19:00) 7.8 (00:00) 9.2 10.56 (17:10) 4.44 (18:50) 17.4 2.4 6 7.8 1.2
27-11-2019 7.9 (23:40) 5.8 (00:00) 6.9 13.61 (02:00) 5 (15:10) 10.8 1.6 0.4 6.6 2.2
26-11-2019 11.9 (13:10) 5.8 (00:00) 8.8 22.5 (19:20) 7.22 (16:30) 13 1.6 1.2 6.8 3.4
25-11-2019 10 (00:00) 7.9 (00:00) 9 14.44 (04:50) 5.56 (23:59) 0.6 0.4 0.2 0 0
24-11-2019 10 (23:40) 2.6 (00:00) 6.3 13.33 (17:50) 7.22 (18:00) 5.2 0 0 1.6 3.6
23-11-2019 4.7 (15:00) 1.8 (00:00) 3.2 13.06 (00:20) 4.17 (04:10) 22.4 12.6 4 4.6 1.2
22-11-2019 8.6 (11:40) 2.4 (00:00) 5.5 18.33 (09:30) 10.28 (07:20) 34.2 4.8 10.2 8.6 10.6
21-11-2019 6.7 (15:10) 1.3 (00:00) 4 7.5 (00:50) 4.44 (21:40) 6.4 5.6 0.6 0 0.2
20-11-2019 6.8 (14:20) 3.1 (00:00) 5 8.89 (13:40) 4.72 (01:20) 4 0 0.8 1.8 1.4
19-11-2019 5.5 (14:50) 1 (00:00) 3.3 10.56 (21:50) 6.11 (21:50) 0.6 0 0 0 0.6
18-11-2019 6.4 (15:10) 0.9 (00:00) 3.7 5.83 (00:30) 2.5 (06:30) 3.6 1.4 2.2 0 0
17-11-2019 4.8 (07:40) 1.6 (00:00) 3.2 8.89 (19:40) 4.72 (16:20) -- -- -- -- 4.4
16-11-2019 2.4 (15:10) -0.6 (-00:0) 0.9 6.11 (13:00) 2.22 (13:30) -- -- -- -- --
15-11-2019 1.7 (14:30) -0.7 (-00:0) 0.5 8.89 (12:40) 3.33 (13:30) -- -- -- -- --
14-11-2019 4.2 (00:00) -0.7 (-00:0) 1.7 12.78 (00:40) 4.44 (01:10) -- -- -- -- --
13-11-2019 10.4 (00:10) 4.2 (00:00) 7.3 11.67 (00:30) 3.89 (00:20) -- -- -- -- --
12-11-2019 10.3 (23:50) 2.6 (00:00) 6.5 11.67 (20:40) 4.44 (20:40) -- -- -- -- --

Gráficas

Temp. máximas Temp. mínimas Temp. medias Precipitaciones Rachas de viento máximas Velocidades máximas media en intervalos de 10 minutos

Datos horarios

Fecha y hora oficial Temperatura (ºC) Velocidad del viento (km/h) Dirección del viento Racha (km/h) Dirección de racha Precipitación (mm) Presión (hPa) Tendencia (hPa) Humedad (%)
2019-12-11 23:00:00 3.5 14 Norte 36 Nordeste 0.6 -- -- 89
2019-12-11 22:00:00 3.4 10 Norte 34 Noroeste 1.6 -- -- 89
2019-12-11 21:00:00 3.7 13 Norte 39 Norte 0 -- -- 86
2019-12-11 20:00:00 3.6 13 Norte 31 Norte 0.2 -- -- 89
2019-12-11 19:00:00 3.5 10 Nordeste 34 Nordeste 1 -- -- 89
2019-12-11 18:00:00 3.4 8 Nordeste 28 Norte 1 -- -- 90
2019-12-11 17:00:00 3.3 13 Norte 33 Norte 0.2 -- -- 87
2019-12-11 16:00:00 3.1 16 Norte 40 Norte 0.6 -- -- 87
2019-12-11 15:00:00 3 10 Norte 34 Norte 0 -- -- 85
2019-12-11 14:00:00 3 13 Norte 37 Norte 0 -- -- 82
2019-12-11 13:00:00 3.3 16 Norte 36 Norte 0 -- -- 80
2019-12-11 12:00:00 3.1 13 Norte 24 Norte 0 -- -- 84
2019-12-11 11:00:00 2.3 13 Norte 25 Noroeste 0.4 -- -- 87
2019-12-11 10:00:00 2 6 Noroeste 21 Norte 0 -- -- 86
2019-12-11 09:00:00 1.7 8 Norte 21 Nordeste 0.2 -- -- 88
2019-12-11 08:00:00 2 4 Norte 24 Norte 1 -- -- 91
2019-12-11 07:00:00 2.7 4 Norte 19 Norte 0.8 -- -- 91
2019-12-11 06:00:00 2.7 5 Norte 23 Norte 2.8 -- -- 90
2019-12-11 05:00:00 3.5 11 Norte 30 Noroeste 3 -- -- 88
2019-12-11 04:00:00 6.9 10 Norte 27 Norte 1.6 -- -- 88
2019-12-11 03:00:00 7.2 10 Sur 30 Sudoeste 1.8 -- -- 88
2019-12-11 02:00:00 7.1 7 Oeste 22 Sudoeste 0.2 -- -- 85
2019-12-11 01:00:00 7.2 6 Sur 26 Sudoeste 0 -- -- 77
2019-12-11 00:00:00 7.4 14 Sudoeste 33 Oeste 0 -- -- 73
2019-12-10 23:00:00 7.7 11 Sudoeste 29 Noroeste 0 -- -- 49
2019-12-10 22:00:00 7.7 8 Oeste 29 Oeste 0 -- -- 46
2019-12-10 21:00:00 8.9 7 Oeste 23 Sur 0 -- -- 24
2019-12-10 20:00:00 9 7 Sudoeste 20 Sur 0 -- -- 27
2019-12-10 19:00:00 8.4 4 Sur 15 Sudoeste 0 -- -- 34
2019-12-10 18:00:00 9.1 7 Sudoeste 20 Sudoeste 0 -- -- 27
2019-12-10 17:00:00 10.7 6 Sudoeste 24 Sudoeste 0 -- -- 26
2019-12-10 16:00:00 11.1 4 Sudoeste 20 Sur 0 -- -- 26
2019-12-10 15:00:00 11.3 9 Oeste 28 Noroeste 0 -- -- 25
2019-12-10 14:00:00 10.8 8 Sudoeste 23 Sur 0 -- -- 32
2019-12-10 13:00:00 8.9 3 Este 8 Nordeste 0 -- -- 49
2019-12-10 12:00:00 8.8 3 Sudeste 13 Sudeste 0 -- -- 50
2019-12-10 11:00:00 9.1 4 Sur 11 Noroeste 0 -- -- 41
2019-12-10 10:00:00 6.5 4 Oeste 15 Oeste 0 -- -- 47
2019-12-10 09:00:00 6.3 3 Norte 9 Sudeste 0 -- -- 44
2019-12-10 08:00:00 6.5 0 Calma 4 Sur 0 -- -- 39
2019-12-10 07:00:00 6.1 0 Calma 4 Sudeste 0 -- -- 44
2019-12-10 06:00:00 6.1 0 Calma 5 Sudeste 0 -- -- 41
2019-12-10 05:00:00 6.1 0 Calma 4 Sudeste 0 -- -- 40
2019-12-10 04:00:00 5.8 0 Calma 4 Sudeste 0 -- -- 43
2019-12-10 03:00:00 5.8 2 Norte 4 Norte 0 -- -- 42
2019-12-10 02:00:00 5.2 2 Este 4 Sudeste 0 -- -- 49
2019-12-10 01:00:00 5.3 0 Calma 7 Norte 0 -- -- 48
2019-12-10 00:00:00 5.5 0 Calma 8 Norte 0 -- -- 48
2019-12-09 23:00:00 5.7 3 Norte 7 Norte 0 -- -- 50
2019-12-09 22:00:00 4 2 Sudeste 9 Norte 0 -- -- 72
2019-12-09 21:00:00 3.2 0 Calma 9 Noroeste 0 -- -- 87
2019-12-09 20:00:00 3.5 5 Noroeste 13 Norte 0 -- -- 88
2019-12-09 19:00:00 3.6 4 Noroeste 13 Norte 0 -- -- 87
2019-12-09 18:00:00 4.4 8 Norte 17 Norte 0 -- -- 83
2019-12-09 17:00:00 4.6 8 Norte 15 Norte 0 -- -- 82
2019-12-09 16:00:00 6.3 5 Norte 13 Norte 0 -- -- 77
2019-12-09 15:00:00 6.4 6 Norte 15 Norte 0 -- -- 77
2019-12-09 14:00:00 6.3 6 Nordeste 14 Nordeste 0 -- -- 77
2019-12-09 13:00:00 5.8 3 Este 15 Nordeste 0 -- -- 79
2019-12-09 12:00:00 5.1 7 Norte 17 Nordeste 0 -- -- 83
2019-12-09 11:00:00 4.7 5 Norte 12 Nordeste 0 -- -- 85
2019-12-09 10:00:00 3.6 4 Norte 10 Nordeste 0 -- -- 89
2019-12-09 09:00:00 2.9 4 Norte 9 Norte 0 -- -- 90
2019-12-09 08:00:00 2.1 4 Norte 6 Norte 0 -- -- 93
2019-12-09 07:00:00 1.7 2 Norte 10 Norte 0 -- -- 92
2019-12-09 06:00:00 0.5 4 Norte 13 Norte 0 -- -- 92
2019-12-09 05:00:00 2.5 3 Sur 14 Noroeste 0 -- -- 75
2019-12-09 04:00:00 4.7 8 Norte 14 Norte 0 -- -- 53
2019-12-09 03:00:00 2.6 7 Norte 12 Norte 0 -- -- 80
2019-12-09 02:00:00 3.2 7 Norte 14 Norte 0 -- -- 73
2019-12-09 01:00:00 2.3 2 Nordeste 9 Norte 0 -- -- 81
2019-12-09 00:00:00 2.6 6 Norte 9 Norte 0 -- -- 88
2019-12-08 23:00:00 3.8 4 Norte 14 Norte 0 -- -- 88
2019-12-08 22:00:00 4.9 4 Norte 14 Norte 0 -- -- 90
2019-12-08 21:00:00 4.9 6 Norte 11 Norte 0 -- -- 89
2019-12-08 20:00:00 5.6 3 Noroeste 11 Norte 0 -- -- 88
2019-12-08 19:00:00 7.1 4 Norte 18 Norte 0 -- -- 87
2019-12-08 18:00:00 8.2 8 Norte 17 Noroeste 0 -- -- 86
2019-12-08 17:00:00 9.1 4 Norte 18 Norte 0.2 -- -- 89
2019-12-08 16:00:00 9.5 5 Nordeste 21 Noroeste 0.2 -- -- 91
2019-12-08 15:00:00 9.7 3 Nordeste 20 Noroeste 0.6 -- -- 92
2019-12-08 14:00:00 9.6 9 Norte 24 Norte 0 -- -- 92
2019-12-08 13:00:00 9.7 10 Norte 26 Norte 0.6 -- -- 92
2019-12-08 12:00:00 9.2 3 Sur 6 Sudeste 0.6 -- -- 92
2019-12-08 11:00:00 8.9 0 Calma 4 Noroeste 3 -- -- 92
2019-12-08 10:00:00 8.6 6 Nordeste 12 Nordeste 2 -- -- 92
2019-12-08 09:00:00 8.6 3 Sur 14 Sudoeste 0.6 -- -- 90
2019-12-08 08:00:00 9.1 9 Oeste 15 Noroeste 0.8 -- -- 90
2019-12-08 07:00:00 8.6 4 Sudeste 12 Sur 0 -- -- 93
2019-12-08 06:00:00 8.6 5 Sudeste 12 Sudeste 0.6 -- -- 93
2019-12-08 05:00:00 8.5 3 Este 9 Nordeste 0 -- -- 92
2019-12-08 04:00:00 8.3 2 Nordeste 5 Este 0.2 -- -- 92
2019-12-08 03:00:00 8.2 2 Norte 9 Sudeste 0.2 -- -- 91
2019-12-08 02:00:00 8.1 0 Calma 15 Sur 0 -- -- 91
2019-12-08 01:00:00 8.3 0 Calma 12 Sur 0 -- -- 89
2019-12-08 00:00:00 7.9 2 Sur 13 Sur 0 -- -- 87
2019-12-07 23:00:00 8.2 5 Sur 11 Sur 0 -- -- 87
2019-12-07 22:00:00 8.2 4 Sur 11 Oeste 0 -- -- 85
2019-12-07 21:00:00 7.9 6 Sudoeste 15 Oeste 0 -- -- 84
2019-12-07 20:00:00 8.2 5 Oeste 11 Sudoeste 0 -- -- 83
2019-12-07 19:00:00 8.3 3 Sudoeste 8 Noroeste 0 -- -- 75
2019-12-07 18:00:00 8.6 4 Noroeste 13 Norte 0 -- -- 76
2019-12-07 17:00:00 10 5 Norte 10 Norte 0 -- -- 73
2019-12-07 16:00:00 10.6 3 Sudeste 9 Sudeste 0 -- -- 67
2019-12-07 15:00:00 10.4 3 Noroeste 13 Noroeste 0 -- -- 68
2019-12-07 14:00:00 11.2 3 Este 8 Sudeste 0 -- -- 63
2019-12-07 13:00:00 11.3 4 Sur 9 Sur 0 -- -- 62
2019-12-07 12:00:00 9.8 2 Sur 4 Sur 0 -- -- 66
2019-12-07 11:00:00 8.9 0 Calma 4 Este 0 -- -- 67
2019-12-07 10:00:00 8.9 0 Calma 9 Norte 0 -- -- 71
2019-12-07 09:00:00 7.7 0 Calma 7 Norte 0 -- -- 55
2019-12-07 08:00:00 7.5 0 Calma 4 Sur 0 -- -- 51
2019-12-07 07:00:00 7.6 2 Este 6 Norte 0 -- -- 48
2019-12-07 06:00:00 8.1 4 Norte 7 Norte 0 -- -- 44
2019-12-07 05:00:00 7.3 0 Calma 9 Norte 0 -- -- 52
2019-12-07 04:00:00 6.9 3 Nordeste 10 Norte 0 -- -- 57
2019-12-07 03:00:00 6 2 Oeste 7 Norte 0 -- -- 62
2019-12-07 02:00:00 6 2 Norte 6 Norte 0 -- -- 66
2019-12-07 01:00:00 6.3 3 Noroeste 6 Noroeste 0 -- -- 72
2019-12-07 00:00:00 6.2 3 Norte 5 Noroeste 0 -- -- 74
2019-12-06 23:00:00 5.8 0 Calma 7 Norte 0 -- -- 72
2019-12-06 22:00:00 6.3 2 Norte 6 Nordeste 0 -- -- 68
2019-12-06 21:00:00 6.2 4 Noroeste 6 Norte 0 -- -- 77
2019-12-06 20:00:00 5.5 0 Calma 8 Norte 0 -- -- 81
2019-12-06 19:00:00 7 0 Calma 9 Norte 0 -- -- 76
2019-12-06 18:00:00 7.7 4 Norte 8 Norte 0 -- -- 71
2019-12-06 17:00:00 7.8 0 Calma 4 Norte 0 -- -- 72
2019-12-06 16:00:00 9.4 3 Sur 6 Sur 0 -- -- 68
2019-12-06 15:00:00 9.9 5 Noroeste 9 Norte 0 -- -- 62
2019-12-06 14:00:00 10.3 3 Sur 7 Sudeste 0 -- -- 64
2019-12-06 13:00:00 9.5 4 Sur 8 Sur 0 -- -- 66
2019-12-06 12:00:00 9 2 Sur 5 Sur 0 -- -- 65
2019-12-06 11:00:00 9.3 2 Sudoeste 6 Nordeste 0 -- -- 64
2019-12-06 10:00:00 7.9 0 Calma 5 Noroeste 0 -- -- 66
2019-12-06 09:00:00 6.4 0 Calma 5 Nordeste 0 -- -- 65
2019-12-06 08:00:00 5.9 0 Calma 5 Norte 0 -- -- 66
2019-12-06 07:00:00 5.8 2 Norte 5 Sudeste 0 -- -- 67
2019-12-06 06:00:00 6.2 2 Este 6 Nordeste 0 -- -- 66
2019-12-06 05:00:00 5.4 3 Este 13 Sur 0 -- -- 70
2019-12-06 04:00:00 7 9 Oeste 25 Oeste 0 -- -- 61
2019-12-06 03:00:00 6.5 4 Sur 21 Sur 0 -- -- 70
2019-12-06 02:00:00 6.5 8 Sur 32 Sur 0 -- -- 72
2019-12-06 01:00:00 6.7 12 Sur 33 Sur 0 -- -- 73
2019-12-06 00:00:00 6.8 15 Sur 36 Sur 0 -- -- 73
2019-12-05 23:00:00 6.6 12 Sur 36 Sur 0 -- -- 74
2019-12-05 22:00:00 6.8 13 Sur 37 Sur 0 -- -- 74
2019-12-05 21:00:00 7.3 18 Sur 40 Sur 0 -- -- 73
2019-12-05 20:00:00 7.6 29 Sur 41 Sur 0 -- -- 72
2019-12-05 19:00:00 5.5 3 Norte 7 Norte 0 -- -- 85
2019-12-05 18:00:00 6 3 Noroeste 6 Norte 0 -- -- 81
2019-12-05 17:00:00 6.9 3 Norte 5 Norte 0 -- -- 76
2019-12-05 16:00:00 10 3 Oeste 6 Sur 0 -- -- 63
2019-12-05 15:00:00 9.6 5 Sudoeste 10 Sur 0 -- -- 64
2019-12-05 14:00:00 9.1 5 Sur 11 Sur 0 -- -- 63
2019-12-05 13:00:00 9.2 5 Sudoeste 14 Este 0 -- -- 64
2019-12-05 12:00:00 8.9 3 Sur 8 Sur 0 -- -- 64
2019-12-05 11:00:00 8.7 2 Sudeste 9 Sur 0 -- -- 62
2019-12-05 10:00:00 5.8 2 Sudeste 7 Nordeste 0 -- -- 73
2019-12-05 09:00:00 1.3 0 Calma 7 Noroeste 0 -- -- 86
2019-12-05 08:00:00 1.4 0 Calma 10 Norte 0 -- -- 84
2019-12-05 07:00:00 1.6 2 Norte 11 Norte 0 -- -- 82
2019-12-05 06:00:00 2.2 5 Norte 9 Norte 0 -- -- 80
2019-12-05 05:00:00 1.3 4 Norte 6 Norte 0 -- -- 82
2019-12-05 04:00:00 1.1 3 Norte 12 Norte 0 -- -- 79
2019-12-05 03:00:00 1 3 Este 12 Noroeste 0 -- -- 81
2019-12-05 02:00:00 0 3 Noroeste 6 Norte 0 -- -- 86
2019-12-05 01:00:00 0.2 0 Calma 8 Nordeste 0 -- -- 84
2019-12-05 00:00:00 0.5 2 Nordeste 9 Norte 0 -- -- 83
2019-12-04 23:00:00 0.4 0 Calma 13 Noroeste 0 -- -- 84
2019-12-04 22:00:00 0.7 0 Calma 6 Noroeste 0 -- -- 84
2019-12-04 21:00:00 1.1 3 Nordeste 6 Norte 0 -- -- 82
2019-12-04 20:00:00 2.2 6 Norte 11 Norte 0 -- -- 78
2019-12-04 19:00:00 1.9 0 Calma 8 Noroeste 0 -- -- 78
2019-12-04 18:00:00 2.7 3 Norte 14 Noroeste 0 -- -- 75
2019-12-04 17:00:00 4.1 5 Norte 9 Nordeste 0 -- -- 67
2019-12-04 16:00:00 6.5 3 Norte 15 Norte 0 -- -- 57
2019-12-04 15:00:00 6.9 5 Noroeste 13 Norte 0 -- -- 53
2019-12-04 14:00:00 7.4 4 Nordeste 12 Nordeste 0 -- -- 48
2019-12-04 13:00:00 7.7 5 Nordeste 11 Sur 0 -- -- 51
2019-12-04 12:00:00 7.9 4 Sur 10 Sur 0 -- -- 54
2019-12-04 11:00:00 6.5 5 Sur 9 Sur 0 -- -- 56
2019-12-04 10:00:00 5.7 3 Sur 15 Sur 0 -- -- 56
2019-12-04 09:00:00 2.2 5 Sudeste 32 Sur 0 -- -- 69
2019-12-04 08:00:00 2.1 12 Sur 40 Sur 0 -- -- 70
2019-12-04 07:00:00 1.7 18 Sur 43 Sur 0 -- -- 73
2019-12-04 06:00:00 1.1 23 Sur 49 Sur 0 -- -- 74
2019-12-04 05:00:00 1 20 Sur 47 Sur 0 -- -- 73
2019-12-04 04:00:00 1 30 Sur 51 Sur 0 -- -- 70
2019-12-04 03:00:00 0.9 24 Sur 39 Sur 0 -- -- 68
2019-12-04 02:00:00 1.4 26 Sur 48 Sur 0 -- -- 64
2019-12-04 01:00:00 1.8 27 Sur 44 Sudoeste 0 -- -- 67
2019-12-04 00:00:00 2 28 Sur 45 Sur 0 -- -- 66
2019-12-03 23:00:00 2.1 17 Sur 45 Sur 0 -- -- 65
2019-12-03 22:00:00 2.9 25 Sur 40 Sur 0 -- -- 56
2019-12-03 21:00:00 3.5 9 Sur 19 Oeste 0 -- -- 51
2019-12-03 20:00:00 2.4 2 Norte 7 Norte 0 -- -- 57
2019-12-03 19:00:00 1.7 0 Calma 6 Norte 0 -- -- 77
2019-12-03 18:00:00 2.5 0 Calma 10 Noroeste 0 -- -- 74
2019-12-03 17:00:00 3.1 3 Norte 4 Norte 0 -- -- 69
2019-12-03 16:00:00 7.5 3 Oeste 6 Oeste 0 -- -- 53
2019-12-03 15:00:00 6.3 4 Sudoeste 8 Sur 0 -- -- 59
2019-12-03 14:00:00 6 4 Sudoeste 8 Sur 0 -- -- 62
2019-12-03 13:00:00 6.1 3 Sur 7 Sudoeste 0 -- -- 61
2019-12-03 12:00:00 5 3 Sur 8 Sur 0 -- -- 66
2019-12-03 11:00:00 6.9 2 Sudoeste 6 Sur 0 -- -- 42
2019-12-03 10:00:00 3.2 3 Sudeste 6 Norte 0 -- -- 68
2019-12-03 09:00:00 -1.3 0 Calma 4 Sur 0 -- -- 81
2019-12-03 08:00:00 -1.8 0 Calma 5 Nordeste 0 -- -- 83
2019-12-03 07:00:00 -1.8 0 Calma 4 Noroeste 0 -- -- 85
2019-12-03 06:00:00 -1.9 0 Calma 2 Noroeste 0 -- -- 89
2019-12-03 05:00:00 -1.6 0 Calma 4 Noroeste 0 -- -- 91
2019-12-03 04:00:00 -1.6 2 Norte 4 Noroeste 0 -- -- 91
2019-12-03 03:00:00 -1.1 0 Calma 3 Noroeste 0 -- -- 91
2019-12-03 02:00:00 -0.9 0 Calma 4 Nordeste 0 -- -- 90
2019-12-03 01:00:00 -0.6 3 Nordeste 4 Nordeste 0 -- -- 90
2019-12-03 00:00:00 -0.4 0 Calma 6 Noroeste 0 -- -- 90
2019-12-02 23:00:00 0.1 3 Noroeste 6 Noroeste 0 -- -- 87
2019-12-02 22:00:00 0.6 2 Oeste 9 Noroeste 0 -- -- 84
2019-12-02 21:00:00 1.1 3 Noroeste 12 Norte 0 -- -- 84
2019-12-02 20:00:00 1.7 7 Norte 13 Noroeste 0 -- -- 84
2019-12-02 19:00:00 2.5 6 Norte 11 Norte 0 -- -- 80
2019-12-02 18:00:00 3 6 Noroeste 13 Norte 0 -- -- 79
2019-12-02 17:00:00 3.8 7 Norte 19 Norte 0 -- -- 78
2019-12-02 16:00:00 5.3 9 Norte 20 Nordeste 0 -- -- 73
2019-12-02 15:00:00 5.1 8 Norte 23 Norte 0 -- -- 78
2019-12-02 14:00:00 6.4 6 Sur 25 Nordeste 0 -- -- 72
2019-12-02 13:00:00 6.2 10 Norte 24 Nordeste 0 -- -- 79
2019-12-02 12:00:00 6.7 8 Norte 32 Nordeste 0 -- -- 76
2019-12-02 11:00:00 5.6 6 Norte 25 Norte 0 -- -- 75
2019-12-02 10:00:00 5.4 5 Sur 22 Noroeste 0 -- -- 76
2019-12-02 09:00:00 2.9 5 Sudoeste 27 Nordeste 0 -- -- 85
2019-12-02 08:00:00 3.4 7 Norte 34 Norte 0 -- -- 79
2019-12-02 07:00:00 2.7 8 Norte 19 Norte 0 -- -- 81
2019-12-02 06:00:00 2.7 10 Norte 26 Norte 0 -- -- 81
2019-12-02 05:00:00 3 9 Norte 32 Norte 0 -- -- 78
2019-12-02 04:00:00 2.5 9 Norte 23 Sur 0 -- -- 82
2019-12-02 03:00:00 1.9 6 Noroeste 24 Noroeste 0 -- -- 90
2019-12-02 02:00:00 2.2 6 Norte 18 Norte 0 -- -- 90
2019-12-02 01:00:00 2 6 Norte 21 Norte 0 -- -- 91
2019-12-02 00:00:00 2.1 9 Norte 24 Nordeste 0.2 -- -- 91
2019-12-01 23:00:00 2.1 9 Norte 27 Norte 0.4 -- -- 91
2019-12-01 22:00:00 2.3 9 Norte 29 Nordeste 0.4 -- -- 91
2019-12-01 21:00:00 2.6 9 Norte 30 Norte 0.4 -- -- 92
2019-12-01 20:00:00 3 10 Norte 28 Noroeste 0.2 -- -- 93
2019-12-01 19:00:00 3.6 11 Norte 25 Nordeste 0.6 -- -- 92
2019-12-01 18:00:00 4.4 7 Norte 19 Norte 0 -- -- 90
2019-12-01 17:00:00 4.8 9 Norte 22 Norte 0 -- -- 87
2019-12-01 16:00:00 5.3 11 Norte 22 Nordeste 0 -- -- 86
2019-12-01 15:00:00 6.1 6 Nordeste 19 Norte 0 -- -- 79
2019-12-01 14:00:00 5.5 9 Norte 21 Nordeste 0 -- -- 85
2019-12-01 13:00:00 6.2 7 Norte 21 Nordeste 0 -- -- 87
2019-12-01 12:00:00 4.7 6 Norte 17 Nordeste 0 -- -- 90
2019-12-01 11:00:00 4.3 3 Norte 12 Norte 0 -- -- 90
2019-12-01 10:00:00 4.1 0 Calma 6 Norte 0 -- -- 90
2019-12-01 09:00:00 3.5 0 Calma 6 Norte 0 -- -- 88
2019-12-01 08:00:00 3.8 3 Este 21 Sur 0 -- -- 86
2019-12-01 07:00:00 3.9 12 Sur 24 Sur 0 -- -- 83
2019-12-01 06:00:00 3.6 12 Sur 38 Sur 0 -- -- 86
2019-12-01 05:00:00 3.7 19 Sur 33 Sur 0.2 -- -- 89
2019-12-01 04:00:00 3.9 13 Sur 32 Sur 1 -- -- 89
2019-12-01 03:00:00 4 20 Sur 37 Sur 0.6 -- -- 89
2019-12-01 02:00:00 4.3 16 Sur 30 Sur 0 -- -- 83
2019-12-01 01:00:00 4.8 14 Sur 36 Sur 0.4 -- -- 80
2019-12-01 00:00:00 4.4 6 Sudoeste 27 Sudeste 0 -- -- 88
2019-11-30 23:00:00 4.5 13 Sudoeste 32 Oeste 0.6 -- -- 84
2019-11-30 22:00:00 5 7 Sur 28 Oeste 0.4 -- -- 82
2019-11-30 21:00:00 4.7 9 Sur 26 Sur 1 -- -- 85
2019-11-30 20:00:00 5.4 4 Sur 29 Sur 0.2 -- -- 80
2019-11-30 19:00:00 5.7 8 Oeste 29 Oeste 0 -- -- 75
2019-11-30 18:00:00 5.9 6 Sudeste 32 Sudoeste 0 -- -- 72
2019-11-30 17:00:00 6.4 11 Sudoeste 31 Oeste 0 -- -- 69
2019-11-30 16:00:00 7.4 13 Sudoeste 32 Sudoeste 0 -- -- 62
2019-11-30 15:00:00 7.6 9 Sudeste 40 Sudoeste 0 -- -- 60
2019-11-30 14:00:00 7.4 11 Sudoeste 28 Sudoeste 0 -- -- 64
2019-11-30 13:00:00 6.7 6 Norte 22 Nordeste 0 -- -- 71
2019-11-30 12:00:00 6 11 Norte 29 Norte 0 -- -- 81
2019-11-30 11:00:00 6.1 12 Nordeste 32 Este 1.2 -- -- 87
2019-11-30 10:00:00 6.9 7 Este 20 Sudeste 0.2 -- -- 86
2019-11-30 09:00:00 6.4 8 Nordeste 37 Norte 1 -- -- 89
2019-11-30 08:00:00 8.5 14 Norte 48 Norte 3.8 -- -- 87
2019-11-30 07:00:00 10.4 9 Sudoeste 45 Sudoeste 0 -- -- 80
2019-11-30 06:00:00 10.3 13 Sur 30 Sudoeste 6.4 -- -- 84
2019-11-30 05:00:00 10.3 7 Sur 30 Sur 2.8 -- -- 88
2019-11-30 04:00:00 9.7 13 Sur 33 Sur 1.4 -- -- 91
2019-11-30 03:00:00 8.4 17 Sur 33 Sur 1.4 -- -- 91
2019-11-30 02:00:00 8.2 15 Sur 29 Sur 1.8 -- -- 90
2019-11-30 01:00:00 8.4 8 Sur 24 Oeste 1.4 -- -- 89
2019-11-30 00:00:00 8.4 14 Sudoeste 31 Sur 0.2 -- -- 87
2019-11-29 23:00:00 8.2 8 Sur 31 Sur 0 -- -- 85
2019-11-29 22:00:00 8.8 13 Sudoeste 36 Sudoeste 0 -- -- 75
2019-11-29 21:00:00 9.2 10 Sudoeste 20 Sudoeste 0 -- -- 72
2019-11-29 20:00:00 10.1 8 Sudoeste 16 Oeste 0 -- -- 64
2019-11-29 19:00:00 9.8 8 Oeste 14 Oeste 0 -- -- 63
2019-11-29 18:00:00 9.6 4 Oeste 11 Sudoeste 0 -- -- 68
2019-11-29 17:00:00 10.3 4 Sur 16 Sudoeste 0 -- -- 70
2019-11-29 16:00:00 12.4 8 Sudoeste 24 Sur 0 -- -- 57
2019-11-29 15:00:00 11.3 3 Nordeste 17 Sur 0 -- -- 61
2019-11-29 14:00:00 12.7 11 Sur 19 Sur 0 -- -- 55
2019-11-29 13:00:00 11.7 12 Sur 21 Sur 0 -- -- 68
2019-11-29 12:00:00 12.3 7 Sur 13 Sur 0 -- -- 63
2019-11-29 11:00:00 10.7 6 Sur 13 Sur 0 -- -- 72
2019-11-29 10:00:00 9.7 9 Sudoeste 15 Sudoeste 0 -- -- 72
2019-11-29 09:00:00 5.7 4 Noroeste 6 Noroeste 0 -- -- 89
2019-11-29 08:00:00 5.7 3 Noroeste 10 Norte 0 -- -- 90
2019-11-29 07:00:00 6 3 Nordeste 8 Noroeste 0 -- -- 87
2019-11-29 06:00:00 6.8 5 Norte 9 Norte 0 -- -- 84
2019-11-29 05:00:00 6.6 4 Noroeste 8 Norte 0 -- -- 88
2019-11-29 04:00:00 6.3 3 Noroeste 10 Noroeste 0 -- -- 89
2019-11-29 03:00:00 6.8 5 Oeste 10 Oeste 0 -- -- 89
2019-11-29 02:00:00 7.4 3 Sudoeste 16 Noroeste 0 -- -- 89
2019-11-29 01:00:00 8.5 9 Norte 23 Norte 0 -- -- 86
2019-11-29 00:00:00 8.8 5 Nordeste 23 Norte 0 -- -- 88
2019-11-28 23:00:00 9.4 11 Norte 29 Norte 0 -- -- 85
2019-11-28 22:00:00 9.7 8 Norte 29 Nordeste 0 -- -- 86
2019-11-28 21:00:00 9.6 3 Este 34 Norte 0.2 -- -- 87
2019-11-28 20:00:00 10.2 8 Nordeste 30 Sudoeste 0.4 -- -- 88
2019-11-28 19:00:00 10.5 11 Sudoeste 37 Sur 0.6 -- -- 85
2019-11-28 18:00:00 9.7 11 Sudoeste 38 Sur 1.6 -- -- 87
2019-11-28 17:00:00 9.1 14 Sur 32 Sur 1.6 -- -- 87
2019-11-28 16:00:00 8.5 4 Sudeste 29 Sur 2 -- -- 87
2019-11-28 15:00:00 8.4 8 Sur 28 Sudoeste 1.8 -- -- 86
2019-11-28 14:00:00 8.2 9 Sudoeste 34 Sudoeste 0.8 -- -- 82
2019-11-28 13:00:00 9.1 4 Este 33 Sudoeste 0 -- -- 80
2019-11-28 12:00:00 9.3 9 Sur 28 Oeste 1.6 -- -- 87
2019-11-28 11:00:00 9.4 3 Norte 12 Sur 2.6 -- -- 90
2019-11-28 10:00:00 9.6 5 Sur 22 Sur 0.2 -- -- 86
2019-11-28 09:00:00 9.5 7 Sur 29 Oeste 0.6 -- -- 85
2019-11-28 08:00:00 9.8 7 Sudoeste 25 Norte 0.4 -- -- 81
2019-11-28 07:00:00 9.7 13 Sudoeste 34 Sudoeste 0.6 -- -- 85
2019-11-28 06:00:00 8.6 4 Este 16 Nordeste 0.8 -- -- 92
2019-11-28 05:00:00 8.3 4 Sur 11 Sudeste 0.8 -- -- 92
2019-11-28 04:00:00 8.3 4 Sur 23 Oeste 0 -- -- 89
2019-11-28 03:00:00 8.7 8 Sudoeste 32 Sudoeste 0.2 -- -- 86
2019-11-28 02:00:00 8.2 7 Sudeste 27 Sudoeste 0.4 -- -- 88
2019-11-28 01:00:00 8.3 9 Nordeste 29 Nordeste 0.2 -- -- 85
2019-11-28 00:00:00 7.8 6 Este 24 Nordeste 0 -- -- 87
2019-11-27 23:00:00 7.3 7 Este 27 Sur 0.4 -- -- 88
2019-11-27 22:00:00 7 8 Nordeste 26 Nordeste 0.6 -- -- 90
2019-11-27 21:00:00 6.6 5 Sudeste 20 Sudeste 0.2 -- -- 91
2019-11-27 20:00:00 6.6 4 Sudeste 15 Nordeste 0.4 -- -- 89
2019-11-27 19:00:00 7 10 Nordeste 39 Sudoeste 0.6 -- -- 86
2019-11-27 18:00:00 6.6 8 Sudeste 26 Norte 0.2 -- -- 86
2019-11-27 17:00:00 6.8 10 Sur 28 Norte 0.6 -- -- 84
2019-11-27 16:00:00 6.4 8 Este 38 Norte 1.4 -- -- 85
2019-11-27 15:00:00 6.1 13 Norte 28 Norte 3.6 -- -- 87
2019-11-27 14:00:00 6.8 8 Nordeste 33 Oeste 0.8 -- -- 79
2019-11-27 06:00:00 -- -- -- -- -- -- -- -- --
2019-11-27 05:00:00 6.6 6 Nordeste 35 Nordeste 0 -- -- 82
2019-11-27 04:00:00 6.7 9 Este 32 Sudoeste 0.6 -- -- 84
2019-11-27 03:00:00 6.7 10 Nordeste 35 Nordeste 0 -- -- 79
2019-11-27 02:00:00 6.7 17 Sur 49 Sudoeste 0.6 -- -- 82
2019-11-27 01:00:00 6.4 12 Sudeste 45 Sudoeste 0.4 -- -- 82
2019-11-27 00:00:00 6.3 17 Sudoeste 42 Oeste 0 -- -- 80
2019-11-26 23:00:00 5.9 11 Sudeste 45 Sudoeste 0.4 -- -- 79
2019-11-26 22:00:00 6.1 13 Sur 35 Oeste 0.2 -- -- 77
2019-11-26 21:00:00 6.7 14 Sudeste 47 Sudoeste 0 -- -- 73
2019-11-26 20:00:00 6.7 13 Sudeste 81 Sur 0 -- -- 76
2019-11-26 19:00:00 7.4 16 Sur 61 Oeste 2.8 -- -- 78
2019-11-26 18:00:00 8.4 19 Sudoeste 59 Noroeste 3 -- -- 76
2019-11-26 17:00:00 9.7 19 Sudoeste 72 Oeste 3.2 -- -- 73
2019-11-26 16:00:00 10.2 16 Oeste 45 Sur 0.6 -- -- 72
2019-11-26 15:00:00 11.1 17 Sur 58 Sudoeste 0 -- -- 60
2019-11-26 14:00:00 11.4 17 Sudoeste 43 Sudoeste 0 -- -- 58
2019-11-26 13:00:00 11.4 14 Sudoeste 48 Sudoeste 0 -- -- 62
2019-11-26 12:00:00 10.8 14 Sudoeste 53 Sur 0.2 -- -- 67
2019-11-26 11:00:00 10.3 15 Sur 38 Sur 0 -- -- 72
2019-11-26 10:00:00 9.5 6 Sur 28 Sur 0 -- -- 78
2019-11-26 09:00:00 9.9 10 Sur 26 Sur 0 -- -- 82
2019-11-26 08:00:00 10.3 9 Sur 31 Sudeste 0 -- -- 89
2019-11-26 07:00:00 9.4 15 Sur 28 Sur 1 -- -- 91
2019-11-26 06:00:00 9.3 17 Sur 28 Sur 1 -- -- 91
2019-11-26 05:00:00 9 15 Sur 35 Sur 0.4 -- -- 91
2019-11-26 04:00:00 8.7 18 Sur 36 Sur 0.2 -- -- 89
2019-11-26 03:00:00 9.6 19 Sur 37 Sur 0 -- -- 85
2019-11-26 02:00:00 8.2 25 Sur 37 Sur 0 -- -- 89
2019-11-26 01:00:00 8.3 10 Sur 39 Sur 0 -- -- 83
2019-11-26 00:00:00 9.9 20 Sur 42 Sudoeste 0 -- -- 77
2019-11-25 23:00:00 9.7 11 Sudoeste 24 Sudeste 0 -- -- 64
2019-11-25 22:00:00 9.2 8 Oeste 28 Sudoeste 0 -- -- 70
2019-11-25 21:00:00 9.1 12 Sudoeste 38 Oeste 0 -- -- 73
2019-11-25 20:00:00 8.5 14 Sudoeste 36 Oeste 0 -- -- 75
2019-11-25 19:00:00 8.6 10 Sur 34 Sur 0 -- -- 80
2019-11-25 18:00:00 8.7 10 Sur 27 Sur 0 -- -- 79
2019-11-25 17:00:00 9 5 Sudeste 21 Sur 0 -- -- 76
2019-11-25 16:00:00 9.4 9 Sur 26 Sudoeste 0 -- -- 76
2019-11-25 15:00:00 9.6 12 Sudoeste 24 Sur 0 -- -- 76
2019-11-25 14:00:00 9.2 5 Sudoeste 20 Norte 0 -- -- 78
2019-11-25 13:00:00 8.5 5 Sudeste 30 Sudeste 0 -- -- 82
2019-11-25 12:00:00 8.5 7 Este 27 Norte 0 -- -- 81
2019-11-25 11:00:00 8.3 6 Nordeste 19 Nordeste 0.2 -- -- 85
2019-11-25 10:00:00 8.2 5 Sudeste 23 Sudoeste 0 -- -- 87
2019-11-25 09:00:00 7.9 6 Sudeste 32 Sudoeste 0 -- -- 85
2019-11-25 08:00:00 8.1 10 Sudoeste 32 Sudoeste 0 -- -- 82
2019-11-25 07:00:00 7.9 6 Este 31 Sudoeste 0 -- -- 79
2019-11-25 06:00:00 9 6 Este 32 Nordeste 0 -- -- 84
2019-11-25 05:00:00 9.3 11 Sudeste 52 Sudoeste 0 -- -- 84
2019-11-25 04:00:00 9.1 8 Este 33 Sur 0 -- -- 80
2019-11-25 03:00:00 8.8 8 Este 40 Oeste 0.2 -- -- 79
2019-11-25 02:00:00 9.3 9 Oeste 35 Sur 0 -- -- 84
2019-11-25 01:00:00 9.8 16 Sudoeste 38 Sudoeste 0.2 -- -- 81
2019-11-25 00:00:00 10 13 Sudoeste 41 Oeste 0.4 -- -- 82
2019-11-24 23:00:00 9.2 5 Sudeste 28 Sudoeste 0.4 -- -- 88
2019-11-24 22:00:00 8.8 6 Nordeste 18 Sudeste 0.4 -- -- 90
2019-11-24 21:00:00 8.3 7 Sur 35 Sur 1.6 -- -- 90
2019-11-24 20:00:00 9 8 Sudoeste 36 Oeste 0.4 -- -- 88
2019-11-24 19:00:00 7.1 19 Sur 42 Sur 0.4 -- -- 92
2019-11-24 18:00:00 6.4 26 Sur 48 Sur 0.4 -- -- 91
2019-11-24 17:00:00 6.1 21 Sur 38 Sur 0.6 -- -- 92
2019-11-24 16:00:00 5.5 12 Sudeste 30 Sur 0 -- -- 92
2019-11-24 15:00:00 5.7 9 Sur 28 Sur 0.2 -- -- 89
2019-11-24 14:00:00 5.9 10 Sur 21 Sur 0.2 -- -- 87
2019-11-24 13:00:00 5.9 10 Sudoeste 30 Sur 0.2 -- -- 86
2019-11-24 12:00:00 6.3 12 Sur 31 Sur 0 -- -- 79
2019-11-24 11:00:00 5 8 Sur 29 Sur 0 -- -- 85
2019-11-24 10:00:00 4.3 11 Sur 21 Sur 0 -- -- 85
2019-11-24 09:00:00 3.7 5 Sur 13 Sur 0 -- -- 88
2019-11-24 08:00:00 3.1 2 Este 9 Sur 0 -- -- 89
2019-11-24 07:00:00 2.9 2 Norte 5 Oeste 0 -- -- 90
2019-11-24 06:00:00 2.9 3 Sur 17 Nordeste 0 -- -- 89
2019-11-24 05:00:00 3.3 4 Nordeste 24 Norte 0 -- -- 85
2019-11-24 04:00:00 3.4 7 Norte 22 Norte 0 -- -- 86
2019-11-24 03:00:00 3.5 7 Nordeste 27 Norte 0 -- -- 88
2019-11-24 02:00:00 3.7 5 Nordeste 23 Norte 0 -- -- 89
2019-11-24 01:00:00 3.6 10 Norte 28 Norte 0 -- -- 90
2019-11-24 00:00:00 3.6 9 Nordeste 22 Norte 0 -- -- 91
2019-11-23 23:00:00 3.5 4 Sudeste 17 Norte 0.4 -- -- 91
2019-11-23 22:00:00 3.6 3 Este 23 Norte 0 -- -- 89
2019-11-23 21:00:00 3.8 6 Este 22 Noroeste 0 -- -- 89
2019-11-23 20:00:00 3.8 7 Nordeste 19 Norte 0.2 -- -- 89
2019-11-23 19:00:00 4.1 6 Nordeste 21 Este 0.6 -- -- 90
2019-11-23 18:00:00 4.2 5 Norte 26 Nordeste 0.2 -- -- 89
2019-11-23 17:00:00 4.2 6 Nordeste 25 Norte 1.2 -- -- 90
2019-11-23 16:00:00 4.3 5 Norte 25 Norte 1.8 -- -- 88
2019-11-23 15:00:00 4.7 7 Norte 27 Nordeste 0 -- -- 85
2019-11-23 14:00:00 3.9 5 Nordeste 31 Nordeste 1 -- -- 89
2019-11-23 13:00:00 4 7 Nordeste 24 Norte 0.4 -- -- 88
2019-11-23 12:00:00 3.5 5 Este 28 Norte 0.4 -- -- 90
2019-11-23 11:00:00 3.2 8 Este 30 Norte 0.8 -- -- 90
2019-11-23 10:00:00 3.2 6 Norte 24 Nordeste 0.6 -- -- 90
2019-11-23 09:00:00 2.9 10 Norte 34 Norte 0.4 -- -- 89
2019-11-23 08:00:00 2.7 8 Norte 28 Noroeste 0.6 -- -- 90
2019-11-23 07:00:00 2.2 10 Norte 32 Noroeste 1.2 -- -- 89
2019-11-23 06:00:00 2.3 12 Norte 39 Norte 0.4 -- -- 89
2019-11-23 05:00:00 2.2 7 Norte 39 Norte 2.2 -- -- 89
2019-11-23 04:00:00 2.6 15 Norte 47 Norte 0 -- -- 87
2019-11-23 03:00:00 2.5 11 Norte 36 Norte 1.2 -- -- 87
2019-11-23 02:00:00 3 13 Norte 41 Norte 4 -- -- 90
2019-11-23 01:00:00 2.4 13 Norte 47 Norte 4.8 -- -- 90
2019-11-23 00:00:00 2.4 13 Norte 44 Nordeste 5 -- -- 89
2019-11-22 23:00:00 3.2 15 Norte 54 Norte 2.6 -- -- 88
2019-11-22 22:00:00 4.8 17 Nordeste 47 Norte 1 -- -- 89
2019-11-22 21:00:00 5.4 23 Norte 54 Norte 0.8 -- -- 87
2019-11-22 20:00:00 5.6 11 Nordeste 47 Noroeste 0.8 -- -- 87
2019-11-22 19:00:00 6.2 14 Sur 51 Sudoeste 0.4 -- -- 81
2019-11-22 18:00:00 5.6 18 Sudoeste 53 Norte 2 -- -- 82
2019-11-22 17:00:00 5.9 14 Sudoeste 37 Sudoeste 0.2 -- -- 80
2019-11-22 16:00:00 5.4 17 Sudoeste 43 Sudoeste 0.8 -- -- 80
2019-11-22 15:00:00 6.5 16 Sudoeste 35 Oeste 1.2 -- -- 77
2019-11-22 14:00:00 6 11 Este 41 Oeste 1.4 -- -- 80
2019-11-22 13:00:00 7 12 Nordeste 48 Norte 3 -- -- 88
2019-11-22 12:00:00 8.2 17 Sudoeste 58 Sur 0.6 -- -- 84
2019-11-22 11:00:00 8.1 17 Sur 45 Sur 2.2 -- -- 84
2019-11-22 10:00:00 5.5 24 Sur 66 Sur 2.4 -- -- 88
2019-11-22 09:00:00 4.9 31 Sur 60 Sur 2.6 -- -- 88
2019-11-22 08:00:00 4.3 26 Sur 64 Sur 0.8 -- -- 89
2019-11-22 07:00:00 4.3 33 Sur 60 Sur 1.6 -- -- 88
2019-11-22 06:00:00 4 27 Sur 60 Sur 1.4 -- -- 89
2019-11-22 05:00:00 3.3 26 Sur 48 Sur 1.8 -- -- 89
2019-11-22 04:00:00 3.8 23 Sur 46 Sur 1 -- -- 85
2019-11-22 03:00:00 4.1 22 Sudoeste 45 Sur 0.6 -- -- 83
2019-11-22 02:00:00 4 19 Sur 37 Sudoeste 0 -- -- 83
2019-11-22 01:00:00 3.6 18 Sur 34 Sur 0 -- -- 84
2019-11-22 00:00:00 3.5 14 Sur 27 Sudeste 0 -- -- 82
2019-11-21 23:00:00 3.5 13 Sur 27 Sudoeste 0 -- -- 80
2019-11-21 22:00:00 3.7 9 Sur 27 Sur 0 -- -- 79
2019-11-21 21:00:00 3.9 9 Sur 27 Sur 0 -- -- 78
2019-11-21 20:00:00 3.9 5 Oeste 19 Sur 0 -- -- 81
2019-11-21 19:00:00 3.6 6 Sur 14 Oeste 0.2 -- -- 84
2019-11-21 18:00:00 4.3 3 Sur 13 Sudoeste 0 -- -- 77
2019-11-21 17:00:00 5 8 Sur 19 Sur 0 -- -- 71
2019-11-21 16:00:00 5.5 8 Sudoeste 20 Sur 0 -- -- 73
2019-11-21 15:00:00 6.6 9 Sudoeste 24 Oeste 0 -- -- 62
2019-11-21 14:00:00 5.9 12 Sudoeste 26 Sur 0 -- -- 67
2019-11-21 13:00:00 5.4 8 Sudoeste 24 Sudoeste 0 -- -- 74
2019-11-21 12:00:00 4.6 5 Sudeste 21 Sur 0 -- -- 79
2019-11-21 11:00:00 3.8 9 Sudoeste 23 Sudoeste 0 -- -- 81
2019-11-21 10:00:00 2.9 6 Sur 15 Sur 0.2 -- -- 87
2019-11-21 09:00:00 2.1 4 Sudeste 17 Sudoeste 0.4 -- -- 87
2019-11-21 08:00:00 2.5 7 Sudoeste 13 Sudoeste 0 -- -- 87
2019-11-21 07:00:00 1.9 3 Este 14 Sudoeste 0 -- -- 89
2019-11-21 06:00:00 2.3 8 Sudoeste 15 Sur 0.6 -- -- 90
2019-11-21 05:00:00 2.1 3 Sudeste 21 Sur 0 -- -- 89
2019-11-21 04:00:00 1.4 6 Sudoeste 22 Sudoeste 3 -- -- 89
2019-11-21 03:00:00 2.3 9 Sudoeste 20 Oeste 1.8 -- -- 85
2019-11-21 02:00:00 3.3 5 Sudeste 14 Sur 0 -- -- 86
2019-11-21 01:00:00 3.5 10 Sur 27 Sur 0.2 -- -- 86
2019-11-21 00:00:00 3.3 8 Sudoeste 18 Sudoeste 0.2 -- -- 85
2019-11-20 23:00:00 3.6 8 Sudoeste 27 Sudoeste 0.4 -- -- 85
2019-11-20 22:00:00 3.4 9 Sudoeste 27 Sudoeste 0.6 -- -- 86
2019-11-20 21:00:00 3.8 7 Sudoeste 26 Oeste 0 -- -- 82
2019-11-20 20:00:00 3.8 9 Sur 23 Sudoeste 0 -- -- 86
2019-11-20 19:00:00 3.7 9 Sudoeste 23 Sudoeste 0.2 -- -- 86
2019-11-20 18:00:00 3.5 4 Sudoeste 15 Noroeste 1.4 -- -- 87
2019-11-20 17:00:00 4.6 6 Oeste 20 Sur 0.4 -- -- 82
2019-11-20 16:00:00 5.3 12 Sur 23 Sur 0 -- -- 83
2019-11-20 15:00:00 6.3 13 Sur 26 Sur 0 -- -- 79
2019-11-20 14:00:00 6.3 12 Sur 32 Sur 0 -- -- 81
2019-11-20 13:00:00 5.2 12 Sur 26 Sur 0 -- -- 85
2019-11-20 12:00:00 4.9 8 Sudoeste 19 Sudoeste 0.6 -- -- 86
2019-11-20 11:00:00 4.6 7 Sudoeste 30 Sudoeste 0.2 -- -- 85
2019-11-20 10:00:00 3.8 9 Sudoeste 20 Sudoeste 0 -- -- 89
2019-11-20 09:00:00 3.4 9 Sudoeste 23 Sur 0 -- -- 89
2019-11-20 08:00:00 3.2 8 Sudoeste 28 Oeste 0 -- -- 90
2019-11-20 07:00:00 3.6 10 Sur 22 Sur 0 -- -- 89
2019-11-20 06:00:00 3.4 7 Sudoeste 28 Oeste 0 -- -- 89
2019-11-20 05:00:00 3.1 12 Sudoeste 27 Sudoeste 0 -- -- 89
2019-11-20 04:00:00 3.3 13 Sudoeste 24 Oeste 0 -- -- 88
2019-11-20 03:00:00 3.7 11 Oeste 28 Sur 0 -- -- 86
2019-11-20 02:00:00 3.7 12 Sur 31 Oeste 0 -- -- 86
2019-11-20 01:00:00 3.5 11 Sudoeste 25 Sur 0 -- -- 86
2019-11-20 00:00:00 3.3 11 Oeste 30 Sudoeste 0 -- -- 85
2019-11-19 23:00:00 3.6 14 Oeste 32 Sudoeste 0 -- -- 85
2019-11-19 22:00:00 3.1 21 Sudoeste 38 Sudoeste 0 -- -- 86
2019-11-19 21:00:00 3.4 19 Sudoeste 37 Sudoeste 0.6 -- -- 81
2019-11-19 20:00:00 3.8 15 Sudoeste 31 Sur 0 -- -- 76
2019-11-19 19:00:00 3.8 9 Oeste 30 Oeste 0 -- -- 75
2019-11-19 18:00:00 4.2 6 Sudoeste 30 Sudoeste 0 -- -- 74
2019-11-19 17:00:00 4.3 10 Sur 24 Sur 0 -- -- 71
2019-11-19 16:00:00 4.7 9 Sur 27 Sur 0 -- -- 71
2019-11-19 15:00:00 5.4 9 Sur 22 Sur 0 -- -- 68
2019-11-19 14:00:00 4 9 Sur 23 Sur 0 -- -- 74
2019-11-19 13:00:00 4.2 12 Sur 25 Sur 0 -- -- 70
2019-11-19 12:00:00 3.9 11 Sur 27 Sur 0 -- -- 70
2019-11-19 11:00:00 4.4 9 Sur 20 Sur 0 -- -- 68
2019-11-19 10:00:00 3.9 12 Sudoeste 25 Sudoeste 0 -- -- 70
2019-11-19 09:00:00 2.4 6 Sudoeste 17 Oeste 0 -- -- 76
2019-11-19 08:00:00 1.4 4 Oeste 18 Oeste 0 -- -- 80
2019-11-19 07:00:00 1.2 4 Noroeste 21 Sudoeste 0 -- -- 79
2019-11-19 06:00:00 1.4 9 Oeste 18 Sudoeste 0 -- -- 79
2019-11-19 05:00:00 1.1 8 Oeste 21 Sudoeste 0 -- -- 81
2019-11-19 04:00:00 1.1 6 Oeste 18 Sudoeste 0 -- -- 82
2019-11-19 03:00:00 1.3 5 Oeste 18 Oeste 0 -- -- 81
2019-11-19 02:00:00 1.6 11 Oeste 22 Sudoeste 0 -- -- 81
2019-11-19 01:00:00 2 5 Sur 19 Sudoeste 0 -- -- 81
2019-11-19 00:00:00 1.7 5 Sudoeste 13 Oeste 0 -- -- 82
2019-11-18 23:00:00 1.7 4 Norte 10 Norte 0 -- -- 81
2019-11-18 22:00:00 1.6 5 Norte 8 Noroeste 0 -- -- 86
2019-11-18 21:00:00 1.4 4 Norte 8 Norte 0 -- -- 91
2019-11-18 20:00:00 1.7 4 Norte 11 Norte 0 -- -- 88
2019-11-18 19:00:00 2.2 7 Norte 10 Norte 0 -- -- 88
2019-11-18 18:00:00 2.2 4 Noroeste 10 Norte 0 -- -- 89
2019-11-18 17:00:00 3.4 4 Noroeste 6 Noroeste 0 -- -- 84
2019-11-18 16:00:00 4.1 2 Norte 6 Nordeste 0 -- -- 83
2019-11-18 15:00:00 6.3 3 Nordeste 10 Nordeste 0 -- -- 75
2019-11-18 14:00:00 4.3 3 Nordeste 9 Nordeste 0 -- -- 86
2019-11-18 13:00:00 4.2 3 Nordeste 9 Nordeste 0 -- -- 85
2019-11-18 12:00:00 3.8 2 Sudoeste 12 Noroeste 0 -- -- 86
2019-11-18 11:00:00 2.8 4 Norte 14 Noroeste 0 -- -- 88
2019-11-18 10:00:00 1.9 3 Norte 8 Norte 0.4 -- -- 92
2019-11-18 09:00:00 1.2 4 Norte 12 Noroeste 0 -- -- 92
2019-11-18 08:00:00 1.1 3 Norte 13 Noroeste 0.4 -- -- 92
2019-11-18 07:00:00 1 6 Norte 17 Noroeste 1.4 -- -- 92
2019-11-18 06:00:00 1 6 Norte 15 Norte 1.2 -- -- 93
2019-11-18 05:00:00 1.6 6 Norte 15 Norte 0 -- -- 94
2019-11-18 04:00:00 1.5 8 Norte 15 Norte 0.2 -- -- 94
2019-11-18 03:00:00 1.4 7 Norte 15 Norte 0 -- -- 94
2019-11-18 02:00:00 1.3 5 Norte 14 Noroeste 0 -- -- 93
2019-11-18 01:00:00 1.5 7 Norte 21 Norte 0 -- -- 93
2019-11-18 00:00:00 1.6 7 Norte 23 Norte 0.2 -- -- 93
2019-11-17 23:00:00 2.3 5 Norte 24 Noroeste 1.4 -- -- 92
2019-11-17 22:00:00 2.5 6 Norte 22 Norte 0.2 -- -- 92
2019-11-17 21:00:00 2.7 8 Norte 27 Norte 0.4 -- -- 90
2019-11-17 20:00:00 2.6 7 Norte 32 Noroeste 1.6 -- -- 91
2019-11-17 19:00:00 2.6 5 Nordeste 19 Norte 0.6 -- -- 91
2019-11-17 18:00:00 2.7 6 Norte 28 Norte 0.4 -- -- 89
2019-11-17 17:00:00 2.7 11 Norte 31 Noroeste 1.6 -- -- 86
2019-11-17 16:00:00 3.6 9 Norte 24 Norte 0 -- -- 85
2019-11-17 15:00:00 3.3 7 Norte 23 Noroeste 0.2 -- -- 88
2019-11-17 14:00:00 3.8 6 Norte 32 Norte 2 -- -- 88
2019-11-17 13:00:00 4 9 Norte 25 Norte 1 -- -- 90
2019-11-17 12:00:00 3.9 5 Nordeste 19 Noroeste 0.8 -- -- 92
2019-11-17 11:00:00 4.1 8 Norte 26 Nordeste 1.6 -- -- 92
2019-11-17 10:00:00 4.6 6 Norte 22 Norte 1 -- -- 92
2019-11-17 09:00:00 4.4 8 Nordeste 24 Norte 1 -- -- 93
2019-11-17 08:00:00 4.5 9 Norte 22 Norte 1 -- -- 93
2019-11-17 07:00:00 4 3 Norte 10 Sudeste 1 -- -- 94
2019-11-17 06:00:00 4.3 4 Sudeste 13 Sudeste 0.8 -- -- 94
2019-11-17 05:00:00 3.4 3 Norte 12 Norte 1.2 -- -- 93
2019-11-17 04:00:00 2.5 2 Nordeste 8 Este 1 -- -- 94
2019-11-17 03:00:00 2.5 3 Este 8 Este 1 -- -- 93
2019-11-17 02:00:00 2.3 3 Este 13 Sudoeste 1.2 -- -- 92
2019-11-17 01:00:00 2.1 2 Sudeste 13 Sur 1.2 -- -- 93
2019-11-17 00:00:00 1.8 6 Sur 13 Sur 1 -- -- 93
2019-11-16 23:00:00 1.2 0 Calma 6 Este 1.2 -- -- 93
2019-11-16 22:00:00 0.8 0 Calma 5 Noroeste 1.2 -- -- 93
2019-11-16 21:00:00 0.8 0 Calma 4 Nordeste 1.2 -- -- 92
2019-11-16 20:00:00 1 0 Calma 6 Sudeste 1.2 -- -- 91
2019-11-16 19:00:00 1.5 3 Este 16 Nordeste 1.2 -- -- 87
2019-11-16 18:00:00 1.7 5 Nordeste 17 Norte 1 -- -- 86
2019-11-16 17:00:00 1.6 2 Este 14 Este 1.2 -- -- 86
2019-11-16 16:00:00 2.2 3 Sudeste 13 Sur 1 -- -- 85
2019-11-16 15:00:00 2 4 Este 13 Norte 1.2 -- -- 86
2019-11-16 14:00:00 2.2 4 Nordeste 21 Nordeste 1 -- -- 84
2019-11-16 13:00:00 1.4 6 Norte 22 Noroeste 1 -- -- 89
2019-11-16 12:00:00 1.2 5 Norte 14 Norte 1 -- -- 91
2019-11-16 11:00:00 1.2 4 Nordeste 10 Nordeste 0.8 -- -- 91
2019-11-16 10:00:00 0.8 3 Norte 10 Norte 1 -- -- 92
2019-11-16 09:00:00 0.2 3 Norte 10 Noroeste 1 -- -- 94
2019-11-16 08:00:00 0.1 3 Noroeste 10 Noroeste 0.8 -- -- 93
2019-11-16 07:00:00 -0.1 4 Noroeste 11 Noroeste 1 -- -- 93
2019-11-16 06:00:00 -0.2 4 Noroeste 9 Noroeste 1 -- -- 93
2019-11-16 05:00:00 -0.2 4 Norte 6 Noroeste 1 -- -- 93
2019-11-16 04:00:00 -0.3 4 Norte 10 Norte 1 -- -- 93
2019-11-16 03:00:00 -0.2 3 Norte 13 Noroeste 1 -- -- 93
2019-11-16 02:00:00 -0.2 5 Norte 10 Norte 1 -- -- 93
2019-11-16 01:00:00 -0.6 5 Norte 10 Noroeste 1 -- -- 93
2019-11-16 00:00:00 -0.5 6 Noroeste 12 Noroeste 1 -- -- 93
2019-11-15 23:00:00 -0.4 5 Norte 13 Norte 1 -- -- 93
2019-11-15 22:00:00 -0.4 7 Norte 15 Norte 0.8 -- -- 93
2019-11-15 21:00:00 -0.3 6 Norte 19 Norte 1 -- -- 92
2019-11-15 20:00:00 -0.3 8 Norte 18 Norte 1 -- -- 93
2019-11-15 19:00:00 0 6 Norte 17 Nordeste 1 -- -- 92
2019-11-15 18:00:00 -0.1 8 Noroeste 16 Norte 1 -- -- 92
2019-11-15 17:00:00 0.4 2 Sudeste 13 Norte 1 -- -- 89
2019-11-15 16:00:00 0.9 6 Norte 22 Noroeste 1 -- -- 89
2019-11-15 15:00:00 1 9 Norte 23 Noroeste 1 -- -- 88
2019-11-15 14:00:00 1.1 9 Norte 24 Noroeste 0.8 -- -- 88
2019-11-15 13:00:00 0.9 8 Norte 32 Noroeste 1 -- -- 89
2019-11-15 12:00:00 0.9 6 Norte 28 Norte 0.8 -- -- 91
2019-11-15 11:00:00 0.3 4 Norte 16 Norte 0.8 -- -- 92
2019-11-15 10:00:00 0 6 Norte 19 Noroeste 1 -- -- 93
2019-11-15 09:00:00 -0.5 6 Norte 18 Noroeste 0.8 -- -- 93
2019-11-15 08:00:00 -0.5 3 Norte 18 Nordeste 0.8 -- -- 93
2019-11-15 07:00:00 -0.6 4 Noroeste 18 Norte 0.8 -- -- 93
2019-11-15 06:00:00 -0.5 5 Norte 18 Noroeste 0.8 -- -- 93
2019-11-15 05:00:00 -0.6 4 Noroeste 18 Noroeste 1 -- -- 93
2019-11-15 04:00:00 -0.6 5 Norte 15 Nordeste 0.8 -- -- 93
2019-11-15 03:00:00 -0.6 5 Norte 15 Norte 1 -- -- 93
2019-11-15 02:00:00 -0.4 6 Norte 19 Norte 0.8 -- -- 93
2019-11-15 01:00:00 0 8 Norte 18 Noroeste 1 -- -- 93
2019-11-15 00:00:00 0.1 10 Norte 30 Noroeste 0.8 -- -- 92
2019-11-14 23:00:00 0.4 6 Norte 22 Norte 1 -- -- 92
2019-11-14 22:00:00 0.6 8 Norte 35 Noroeste 0.8 -- -- 90
2019-11-14 21:00:00 0.9 10 Norte 31 Norte 1 -- -- 91
2019-11-14 20:00:00 1 10 Norte 28 Nordeste 0.8 -- -- 90
2019-11-14 19:00:00 0.9 9 Norte 31 Noroeste 0.8 -- -- 90
2019-11-14 18:00:00 1.3 9 Norte 35 Noroeste 1 -- -- 89
2019-11-14 17:00:00 1 9 Norte 35 Noroeste 0.8 -- -- 90
2019-11-14 16:00:00 1.8 12 Norte 33 Norte 0.8 -- -- 87
2019-11-14 15:00:00 1.8 9 Norte 41 Noroeste 0.8 -- -- 91
2019-11-14 14:00:00 1.1 11 Nordeste 33 Norte 0.6 -- -- 93
2019-11-14 13:00:00 0.3 7 Norte 27 Nordeste 0.8 -- -- 93
2019-11-14 12:00:00 0.1 5 Sudeste 29 Norte 0.6 -- -- 93
2019-11-14 11:00:00 -0.2 7 Sudeste 21 Norte 0.8 -- -- 93
2019-11-14 10:00:00 -0.4 6 Oeste 16 Oeste 0.6 -- -- 92
2019-11-14 09:00:00 -0.4 5 Nordeste 14 Norte 0.8 -- -- 93
2019-11-14 08:00:00 -0.7 4 Nordeste 11 Sur 0.8 -- -- 93
2019-11-14 07:00:00 -0.5 3 Este 18 Noroeste 0.6 -- -- 92
2019-11-14 06:00:00 -0.1 6 Nordeste 27 Nordeste 0.8 -- -- 91
2019-11-14 05:00:00 0.1 5 Norte 18 Sudeste 0.8 -- -- 91
2019-11-14 04:00:00 0.2 5 Nordeste 35 Norte 0.8 -- -- 91
2019-11-14 03:00:00 0.7 9 Nordeste 44 Norte 0.8 -- -- 90
2019-11-14 02:00:00 1.7 7 Este 37 Norte 0.8 -- -- 90
2019-11-14 01:00:00 3.5 13 Nordeste 46 Norte 0.8 -- -- 90
2019-11-14 00:00:00 4.2 10 Este 38 Noroeste 0.8 -- -- 89
2019-11-13 23:00:00 5.5 13 Norte 36 Nordeste 0.6 -- -- 86
2019-11-13 22:00:00 5.3 10 Sudeste 36 Sudoeste 0.8 -- -- 84
2019-11-13 21:00:00 5.4 9 Este 33 Norte 0.8 -- -- 82
2019-11-13 20:00:00 5.6 7 Este 23 Norte 0.8 -- -- 81
2019-11-13 19:00:00 5.8 9 Sur 30 Norte 0.8 -- -- 81
2019-11-13 18:00:00 5.9 10 Norte 34 Norte 0.8 -- -- 81
2019-11-13 17:00:00 6 8 Nordeste 33 Norte 0.8 -- -- 84
2019-11-13 16:00:00 6.2 8 Nordeste 22 Norte 1 -- -- 87
2019-11-13 15:00:00 6.6 7 Nordeste 22 Norte 0.8 -- -- 86
2019-11-13 14:00:00 5.9 8 Norte 20 Noroeste 0.8 -- -- 90
2019-11-13 13:00:00 6.5 3 Sudoeste 16 Norte 0.8 -- -- 93
2019-11-13 12:00:00 6.4 5 Nordeste 15 Nordeste 1 -- -- 94
2019-11-13 11:00:00 6.1 5 Norte 12 Norte 0.8 -- -- 93
2019-11-13 10:00:00 6 5 Este 15 Nordeste 0.8 -- -- 94
2019-11-13 09:00:00 6 6 Norte 17 Norte 0.6 -- -- 94
2019-11-13 08:00:00 6.4 5 Norte 18 Norte 0.8 -- -- 94
2019-11-13 07:00:00 6.7 6 Norte 14 Nordeste 0.8 -- -- 94
2019-11-13 06:00:00 6.7 9 Norte 26 Norte 0.8 -- -- 94
2019-11-13 05:00:00 7.5 6 Norte 21 Este 0.8 -- -- 93
2019-11-13 04:00:00 7.8 3 Nordeste 22 Norte 0.8 -- -- 93
2019-11-13 03:00:00 8.5 5 Norte 14 Norte 0.6 -- -- 92
2019-11-13 02:00:00 10.1 7 Noroeste 31 Norte 0.8 -- -- 91
2019-11-13 01:00:00 10 9 Norte 42 Nordeste 0.8 -- -- 90
2019-11-13 00:00:00 10.3 12 Norte 35 Noroeste 0.6 -- -- 91
2019-11-12 23:00:00 10.1 11 Norte 32 Norte 0.8 -- -- 90
2019-11-12 22:00:00 10 8 Nordeste 31 Nordeste 0.6 -- -- 90
2019-11-12 21:00:00 9.8 10 Nordeste 42 Norte 0.6 -- -- 90
2019-11-12 20:00:00 9.7 12 Nordeste 40 Norte 0.6 -- -- 90
2019-11-12 19:00:00 9.1 8 Nordeste 26 Noroeste 0.4 -- -- 91
2019-11-12 18:00:00 7.9 6 Sudeste 36 Sudoeste 0.6 -- -- 89
2019-11-12 17:00:00 7.5 12 Sudoeste 35 Sudoeste 0.6 -- -- 87
2019-11-12 16:00:00 6.9 10 Sudoeste 32 Sudoeste 0.4 -- -- 88
2019-11-12 15:00:00 6 9 Sudoeste 29 Oeste 0.6 -- -- 89
2019-11-12 14:00:00 5.5 8 Sudoeste 18 Sur 0.4 -- -- 89
2019-11-12 13:00:00 5.2 7 Sur 17 Sudoeste 0.6 -- -- 89
2019-11-12 12:00:00 5 3 Sudeste 12 Nordeste 0.6 -- -- 90
2019-11-12 11:00:00 4.6 6 Nordeste 21 Norte 0.4 -- -- 91
2019-11-12 10:00:00 4.2 8 Norte 21 Norte 0.6 -- -- 92
2019-11-12 09:00:00 3.6 4 Nordeste 16 Norte 0.4 -- -- 92
2019-11-12 08:00:00 3.2 5 Norte 18 Norte 0.6 -- -- 91
2019-11-12 07:00:00 3.1 3 Este 17 Nordeste 0.6 -- -- 91
2019-11-12 06:00:00 3.2 5 Nordeste 12 Noroeste 0.6 -- -- 90
2019-11-12 05:00:00 3.1 3 Norte 10 Noroeste 0.4 -- -- 89
2019-11-12 04:00:00 3 3 Norte 13 Noroeste 0.6 -- -- 88
2019-11-12 03:00:00 3 4 Norte 10 Noroeste 0.6 -- -- 90
2019-11-12 02:00:00 2.9 4 Norte 10 Noroeste 0.6 -- -- 89
2019-11-12 01:00:00 2.7 6 Norte 12 Norte 0.6 -- -- 89
2019-11-12 00:00:00 2.7 6 Norte 9 Noroeste 0.8 -- -- 88